Time;durP1;ratioP1;P1;durP2;ratioP2;P2;SDS_P1;SDS_P2;PMS_P1;PMS_P2;Temp;Humidity;BMP_temperature;BMP_pressure;BME280_temperature;BME280_humidity;BME280_pressure;Samples;Min_cycle;Max_cycle;Signal;HPM_P1;HPM_P2
2022/03/14 00:00:19;;;;;;;57.53;29.48;;;;;;;;;;6222652;23;20005;-91
2022/03/14 00:02:45;;;;;;;60.50;29.40;;;;;;;;;;6196182;23;20348;-90
2022/03/14 00:05:14;;;;;;;52.53;26.92;;;;;;;;;;6222306;23;20020;-91
2022/03/14 00:07:41;;;;;;;54.13;28.42;;;;;;;;;;6196374;23;20004;-92
2022/03/14 00:10:07;;;;;;;54.13;27.75;;;;;;;;;;6222312;23;20076;-92
2022/03/14 00:12:34;;;;;;;51.10;26.85;;;;;;;;;;6222591;23;20075;-90
2022/03/14 00:15:01;;;;;;;48.83;26.75;;;;;;;;;;6222634;23;20009;-90
2022/03/14 00:17:28;;;;;;;50.80;27.08;;;;;;;;;;6195940;23;20012;-91
2022/03/14 00:19:57;;;;;;;51.13;26.35;;;;;;;;;;6196151;23;20084;-90
2022/03/14 00:22:24;;;;;;;54.55;26.58;;;;;;;;;;6222211;23;20000;-91
2022/03/14 00:24:50;;;;;;;47.58;25.13;;;;;;;;;;6222597;23;20027;-90
2022/03/14 00:30:19;;;;;;;47.80;24.90;;;;;;;;;;6222297;23;20008;-90
2022/03/14 00:32:46;;;;;;;46.05;26.42;;;;;;;;;;6195911;23;20046;-89
2022/03/14 00:35:13;;;;;;;52.38;26.98;;;;;;;;;;6222041;23;20376;-90
2022/03/14 00:37:39;;;;;;;49.80;25.92;;;;;;;;;;6221707;23;20005;-90
2022/03/14 00:40:07;;;;;;;56.40;27.10;;;;;;;;;;6221756;23;19997;-90
2022/03/14 00:42:33;;;;;;;53.42;26.52;;;;;;;;;;6222068;23;20001;-89
2022/03/14 00:44:59;;;;;;;54.33;26.65;;;;;;;;;;6222380;23;20005;-90
2022/03/14 00:47:26;;;;;;;54.92;25.90;;;;;;;;;;6222184;23;20005;-91
2022/03/14 00:49:52;;;;;;;65.70;29.13;;;;;;;;;;6222097;23;20071;-92
2022/03/14 00:52:18;;;;;;;68.47;28.95;;;;;;;;;;6221910;23;20387;-91
2022/03/14 00:54:45;;;;;;;71.35;29.92;;;;;;;;;;6195405;23;20009;-90
2022/03/14 01:00:33;;;;;;;65.70;27.33;;;;;;;;;;6221971;23;20386;-91
2022/03/14 01:02:59;;;;;;;64.30;27.50;;;;;;;;;;6196203;23;20004;-92
2022/03/14 01:05:26;;;;;;;59.50;28.63;;;;;;;;;;6222550;23;20092;-91
2022/03/14 01:07:52;;;;;;;64.63;30.23;;;;;;;;;;6195692;23;20004;-90
2022/03/14 01:10:18;;;;;;;59.20;29.40;;;;;;;;;;6222031;23;20356;-90
2022/03/14 01:12:44;;;;;;;61.70;29.25;;;;;;;;;;6221859;23;20043;-91
2022/03/14 01:15:10;;;;;;;61.28;29.77;;;;;;;;;;6222029;23;20008;-91
2022/03/14 01:17:37;;;;;;;61.70;30.20;;;;;;;;;;6195531;23;20315;-91
2022/03/14 01:20:03;;;;;;;66.40;32.28;;;;;;;;;;6221999;23;19997;-92
2022/03/14 01:22:30;;;;;;;89.97;40.72;;;;;;;;;;6221651;23;20024;-91
2022/03/14 01:24:56;;;;;;;76.70;38.00;;;;;;;;;;6222157;23;20017;-91
2022/03/14 01:33:29;;;;;;;63.17;33.20;;;;;;;;;;6221759;23;20027;-91
2022/03/14 01:35:55;;;;;;;73.40;38.38;;;;;;;;;;6221550;23;20013;-89
2022/03/14 01:38:21;;;;;;;88.90;47.60;;;;;;;;;;6221601;23;20015;-90
2022/03/14 01:40:47;;;;;;;102.22;50.67;;;;;;;;;;6195339;23;20000;-90
2022/03/14 01:43:14;;;;;;;90.63;47.47;;;;;;;;;;6195097;23;20001;-90
2022/03/14 01:45:41;;;;;;;88.15;42.72;;;;;;;;;;6221885;23;20255;-89
2022/03/14 01:48:07;;;;;;;84.07;42.97;;;;;;;;;;6195381;23;20024;-89
2022/03/14 01:50:34;;;;;;;87.93;44.75;;;;;;;;;;6221528;23;20004;-90
2022/03/14 01:53:00;;;;;;;83.95;44.20;;;;;;;;;;6220984;23;20405;-91
2022/03/14 01:55:26;;;;;;;86.63;44.38;;;;;;;;;;6195285;23;20046;-90
2022/03/14 02:00:55;;;;;;;81.05;40.05;;;;;;;;;;6221460;23;20027;-90
2022/03/14 02:03:22;;;;;;;83.85;42.33;;;;;;;;;;6195070;23;20016;-90
2022/03/14 02:05:48;;;;;;;79.05;40.00;;;;;;;;;;6220966;23;20045;-90
2022/03/14 02:08:14;;;;;;;81.82;40.58;;;;;;;;;;6194555;23;20009;-91
2022/03/14 02:10:40;;;;;;;86.03;44.60;;;;;;;;;;6195340;23;20005;-91
2022/03/14 02:13:07;;;;;;;88.05;43.95;;;;;;;;;;6221124;23;20020;-91
2022/03/14 02:15:33;;;;;;;97.90;46.53;;;;;;;;;;6221509;23;20004;-92
2022/03/14 02:18:00;;;;;;;79.75;42.55;;;;;;;;;;6194780;23;20044;-91
2022/03/14 02:20:26;;;;;;;73.25;39.83;;;;;;;;;;6221510;23;19996;-91
2022/03/14 02:22:52;;;;;;;73.53;37.55;;;;;;;;;;6196020;23;19997;-90
2022/03/14 02:25:19;;;;;;;82.22;40.25;;;;;;;;;;6221994;23;20316;-90
2022/03/14 02:27:45;;;;;;;84.88;41.72;;;;;;;;;;6195034;23;20040;-90
2022/03/14 02:30:11;;;;;;;82.53;39.97;;;;;;;;;;6221243;23;20427;-90
2022/03/14 02:32:41;;;;;;;87.63;42.03;;;;;;;;;;6194957;23;20008;-91
2022/03/14 02:35:07;;;;;;;91.68;40.47;;;;;;;;;;6221064;23;20009;-91
2022/03/14 02:37:33;;;;;;;91.88;41.20;;;;;;;;;;6221195;23;20062;-91
2022/03/14 02:39:59;;;;;;;90.30;41.25;;;;;;;;;;6221339;23;20011;-90
2022/03/14 02:42:25;;;;;;;92.72;40.78;;;;;;;;;;6194940;23;19997;-92
2022/03/14 02:47:55;;;;;;;99.38;46.10;;;;;;;;;;6220862;23;20012;-92
2022/03/14 02:50:21;;;;;;;112.90;53.25;;;;;;;;;;6221176;23;20004;-91
2022/03/14 02:52:47;;;;;;;95.22;44.83;;;;;;;;;;6194628;23;20008;-93
2022/03/14 02:55:17;;;;;;;78.90;39.83;;;;;;;;;;6221327;23;20005;-93
2022/03/14 03:00:47;;;;;;;91.00;41.88;;;;;;;;;;6220835;23;20012;-93
2022/03/14 03:03:13;;;;;;;89.13;42.55;;;;;;;;;;6221787;23;20039;-93
2022/03/14 03:05:43;;;;;;;79.30;40.38;;;;;;;;;;6222676;23;20408;-93
2022/03/14 03:08:10;;;;;;;92.50;44.42;;;;;;;;;;6196876;23;20012;-90
2022/03/14 03:10:36;;;;;;;105.55;48.20;;;;;;;;;;6196878;23;20008;-90
2022/03/14 03:13:03;;;;;;;92.32;44.47;;;;;;;;;;6223044;23;20078;-90
2022/03/14 03:15:29;;;;;;;101.85;46.22;;;;;;;;;;6223428;23;20005;-90
2022/03/14 03:17:55;;;;;;;96.00;45.10;;;;;;;;;;6222804;23;20008;-90
2022/03/14 03:20:22;;;;;;;78.78;40.50;;;;;;;;;;6222768;23;20000;-90
2022/03/14 03:22:48;;;;;;;78.07;39.50;;;;;;;;;;6223132;23;20011;-89
2022/03/14 03:25:14;;;;;;;79.10;39.78;;;;;;;;;;6196621;23;20487;-88
2022/03/14 03:27:41;;;;;;;70.78;36.80;;;;;;;;;;6222978;23;20075;-89
2022/03/14 03:30:07;;;;;;;70.97;36.22;;;;;;;;;;6223181;23;20012;-89
2022/03/14 03:32:34;;;;;;;71.93;36.35;;;;;;;;;;6222943;23;20016;-90
2022/03/14 03:35:00;;;;;;;70.90;37.15;;;;;;;;;;6222583;23;20367;-89
2022/03/14 03:37:26;;;;;;;69.18;34.17;;;;;;;;;;6222633;23;20032;-89
2022/03/14 03:39:52;;;;;;;69.43;35.17;;;;;;;;;;6196443;23;20007;-90
2022/03/14 03:42:18;;;;;;;59.35;33.40;;;;;;;;;;6223675;23;20355;-90
2022/03/14 03:44:53;;;;;;;65.13;34.65;;;;;;;;;;6223091;23;20027;-89
2022/03/14 03:47:20;;;;;;;65.65;33.22;;;;;;;;;;6223086;23;20028;-92
2022/03/14 03:49:46;;;;;;;67.35;33.70;;;;;;;;;;6222722;23;20000;-91
2022/03/14 03:52:12;;;;;;;59.40;32.42;;;;;;;;;;6222906;23;20068;-91
2022/03/14 03:54:39;;;;;;;57.67;31.15;;;;;;;;;;6222603;23;20360;-92
2022/03/14 03:57:06;;;;;;;60.38;33.20;;;;;;;;;;6222467;23;20005;-92
2022/03/14 03:59:32;;;;;;;62.47;32.20;;;;;;;;;;6222573;23;20359;-92
2022/03/14 04:01:59;;;;;;;59.35;31.38;;;;;;;;;;6222395;23;19996;-92
2022/03/14 04:04:26;;;;;;;64.65;31.95;;;;;;;;;;6222091;23;20363;-92
2022/03/14 04:06:54;;;;;;;57.72;30.67;;;;;;;;;;6222699;23;20027;-92
2022/03/14 04:09:20;;;;;;;59.88;30.88;;;;;;;;;;6222740;23;20072;-91
2022/03/14 04:11:46;;;;;;;61.33;30.42;;;;;;;;;;6222734;23;19997;-92
2022/03/14 04:14:13;;;;;;;61.75;30.85;;;;;;;;;;6195924;23;20005;-93
2022/03/14 04:16:41;;;;;;;55.08;29.20;;;;;;;;;;6196061;23;20339;-93
2022/03/14 04:19:09;;;;;;;53.83;29.15;;;;;;;;;;6222157;23;20001;-91
2022/03/14 04:21:36;;;;;;;57.33;28.17;;;;;;;;;;6222198;23;20004;-92
2022/03/14 04:24:06;;;;;;;61.10;31.15;;;;;;;;;;6222347;23;20035;-93
2022/03/14 04:26:32;;;;;;;57.72;30.52;;;;;;;;;;6222488;23;20054;-93
2022/03/14 04:32:02;;;;;;;49.95;26.55;;;;;;;;;;6221936;23;20051;-93
2022/03/14 04:34:28;;;;;;;50.72;26.38;;;;;;;;;;6222245;23;20009;-93
2022/03/14 04:36:54;;;;;;;50.53;26.40;;;;;;;;;;6222658;23;20336;-94
2022/03/14 04:39:21;;;;;;;50.13;27.15;;;;;;;;;;6222468;23;20004;-91
2022/03/14 04:41:47;;;;;;;52.42;27.23;;;;;;;;;;6221985;23;20418;-93
2022/03/14 04:44:51;;;;;;;53.55;28.55;;;;;;;;;;6222113;23;20047;-93
2022/03/14 04:47:17;;;;;;;57.35;28.85;;;;;;;;;;6196031;23;20393;-94
2022/03/14 04:49:44;;;;;;;64.45;32.13;;;;;;;;;;6222434;23;20043;-89
2022/03/14 04:52:10;;;;;;;49.17;26.92;;;;;;;;;;6195572;23;20009;-90
2022/03/14 04:54:36;;;;;;;47.83;25.45;;;;;;;;;;6222434;23;20001;-92
2022/03/14 04:57:02;;;;;;;45.38;24.63;;;;;;;;;;6222153;23;20244;-91
2022/03/14 05:02:32;;;;;;;44.15;23.92;;;;;;;;;;6221777;23;20012;-92
2022/03/14 05:04:58;;;;;;;47.20;23.27;;;;;;;;;;6221643;23;20126;-93
2022/03/14 05:07:24;;;;;;;48.22;23.35;;;;;;;;;;6195667;23;20001;-93
2022/03/14 05:09:50;;;;;;;49.17;23.73;;;;;;;;;;6195109;23;20024;-93
2022/03/14 05:12:16;;;;;;;50.15;26.02;;;;;;;;;;6195570;23;20260;-92
2022/03/14 05:17:46;;;;;;;228.43;97.50;;;;;;;;;;6221610;23;20019;-93
2022/03/14 05:20:12;;;;;;;128.13;55.70;;;;;;;;;;6222215;23;20001;-93
2022/03/14 05:22:45;;;;;;;72.90;32.72;;;;;;;;;;6221995;23;19996;-93
2022/03/14 05:25:12;;;;;;;48.03;25.05;;;;;;;;;;6222029;23;19997;-94
2022/03/14 05:27:39;;;;;;;44.45;22.58;;;;;;;;;;6195432;23;20000;-92
2022/03/14 05:30:08;;;;;;;39.40;20.65;;;;;;;;;;6221695;23;20375;-90
2022/03/14 05:32:35;;;;;;;35.63;20.05;;;;;;;;;;6221434;23;20001;-90
2022/03/14 05:35:01;;;;;;;34.97;18.25;;;;;;;;;;6221773;23;20059;-90
2022/03/14 05:37:27;;;;;;;39.40;20.27;;;;;;;;;;6221824;23;20005;-90
2022/03/14 05:39:54;;;;;;;42.25;21.05;;;;;;;;;;6221730;23;20000;-90
2022/03/14 05:42:20;;;;;;;40.83;21.25;;;;;;;;;;6221883;23;20027;-90
2022/03/14 05:44:47;;;;;;;39.00;19.27;;;;;;;;;;6195238;23;20001;-89
2022/03/14 05:47:13;;;;;;;34.10;18.88;;;;;;;;;;6194988;23;20011;-89
2022/03/14 05:49:39;;;;;;;30.60;16.98;;;;;;;;;;6221239;23;19997;-92
2022/03/14 05:52:06;;;;;;;33.45;17.70;;;;;;;;;;6221284;23;20396;-89
2022/03/14 05:54:34;;;;;;;34.90;18.35;;;;;;;;;;6194963;23;20015;-91
2022/03/14 05:57:00;;;;;;;34.90;18.98;;;;;;;;;;6194168;23;20390;-94
2022/03/14 05:59:46;;;;;;;38.75;19.17;;;;;;;;;;6221428;23;20009;-93
2022/03/14 06:02:12;;;;;;;35.75;19.25;;;;;;;;;;6220922;23;20020;-93
2022/03/14 06:04:40;;;;;;;42.80;21.33;;;;;;;;;;6194646;23;20025;-93
2022/03/14 06:07:06;;;;;;;43.42;21.83;;;;;;;;;;6195924;23;20083;-92
2022/03/14 06:09:32;;;;;;;46.28;21.73;;;;;;;;;;6195199;23;20004;-94
2022/03/14 06:11:58;;;;;;;45.03;22.20;;;;;;;;;;6221398;23;20008;-93
2022/03/14 06:14:24;;;;;;;42.78;19.13;;;;;;;;;;6220864;23;20055;-92
2022/03/14 06:16:50;;;;;;;37.03;18.60;;;;;;;;;;6221070;23;19997;-92
2022/03/14 06:19:17;;;;;;;33.22;16.40;;;;;;;;;;6221400;23;20031;-94
2022/03/14 06:21:43;;;;;;;33.53;16.65;;;;;;;;;;6221586;23;19993;-93
2022/03/14 06:24:09;;;;;;;34.20;16.25;;;;;;;;;;6221086;23;20143;-94
2022/03/14 06:26:35;;;;;;;33.63;15.10;;;;;;;;;;6220951;23;20375;-94
2022/03/14 06:29:02;;;;;;;28.48;14.80;;;;;;;;;;6220943;23;20005;-93
2022/03/14 06:31:30;;;;;;;28.27;15.10;;;;;;;;;;6194793;23;20008;-93
2022/03/14 06:33:56;;;;;;;58.50;22.35;;;;;;;;;;6221193;22;20005;-93
2022/03/14 06:36:22;;;;;;;48.40;19.35;;;;;;;;;;6221317;23;20000;-92
2022/03/14 06:38:48;;;;;;;43.80;17.17;;;;;;;;;;6220874;23;20012;-93
2022/03/14 06:41:15;;;;;;;61.22;23.63;;;;;;;;;;6221363;23;20001;-93
2022/03/14 06:43:41;;;;;;;43.72;17.27;;;;;;;;;;6220769;23;19997;-94
2022/03/14 06:46:08;;;;;;;41.13;16.85;;;;;;;;;;6220883;23;20008;-94
2022/03/14 06:48:39;;;;;;;45.42;17.20;;;;;;;;;;6194736;23;20009;-93
2022/03/14 06:51:05;;;;;;;42.30;17.50;;;;;;;;;;6220823;23;20005;-93
2022/03/14 06:53:31;;;;;;;27.92;12.93;;;;;;;;;;6220872;23;20375;-93
2022/03/14 06:55:58;;;;;;;35.85;16.10;;;;;;;;;;6221150;23;20004;-94
2022/03/14 06:58:24;;;;;;;39.80;16.98;;;;;;;;;;6220433;23;20001;-94
2022/03/14 07:00:50;;;;;;;44.88;17.98;;;;;;;;;;6221229;23;20031;-92
2022/03/14 07:03:16;;;;;;;40.05;17.02;;;;;;;;;;6221162;23;20020;-93
2022/03/14 07:05:43;;;;;;;34.20;15.40;;;;;;;;;;6220853;23;20379;-93
2022/03/14 07:08:13;;;;;;;39.55;16.55;;;;;;;;;;6220927;23;20005;-92
2022/03/14 07:10:39;;;;;;;33.47;15.10;;;;;;;;;;6194550;23;20011;-93
2022/03/14 07:13:05;;;;;;;25.30;13.13;;;;;;;;;;6220834;23;20063;-94
2022/03/14 07:15:32;;;;;;;32.95;14.95;;;;;;;;;;6194730;23;20016;-94
2022/03/14 07:17:59;;;;;;;36.78;15.32;;;;;;;;;;6221208;23;20265;-92
2022/03/14 07:20:26;;;;;;;39.83;15.35;;;;;;;;;;6220931;23;20080;-93
2022/03/14 07:22:56;;;;;;;46.55;16.75;;;;;;;;;;6221047;23;20004;-94
2022/03/14 07:25:24;;;;;;;40.00;15.85;;;;;;;;;;6220838;23;19996;-92
2022/03/14 07:27:50;;;;;;;36.60;15.90;;;;;;;;;;6221270;23;20119;-93
2022/03/14 07:30:16;;;;;;;36.28;15.32;;;;;;;;;;6194614;23;20083;-93
2022/03/14 07:32:42;;;;;;;47.28;15.98;;;;;;;;;;6220943;23;20005;-93
2022/03/14 07:35:09;;;;;;;29.58;11.63;;;;;;;;;;6220899;23;20013;-92
2022/03/14 07:37:36;;;;;;;35.58;13.60;;;;;;;;;;6194552;23;20410;-91
2022/03/14 07:40:02;;;;;;;44.80;15.18;;;;;;;;;;6221986;23;20001;-90
2022/03/14 07:42:28;;;;;;;30.63;13.40;;;;;;;;;;6195180;23;19996;-90
2022/03/14 07:44:54;;;;;;;34.08;15.23;;;;;;;;;;6194513;23;20007;-90
2022/03/14 07:47:20;;;;;;;35.60;13.00;;;;;;;;;;6220488;23;20001;-90
2022/03/14 07:49:46;;;;;;;19.92;10.10;;;;;;;;;;6195449;23;20005;-91
2022/03/14 07:52:12;;;;;;;21.08;10.32;;;;;;;;;;6222294;23;20312;-90
2022/03/14 07:54:38;;;;;;;20.38;9.48;;;;;;;;;;6222865;23;20020;-89
2022/03/14 07:57:04;;;;;;;23.50;10.27;;;;;;;;;;6195651;23;20001;-89
2022/03/14 07:59:31;;;;;;;21.40;11.10;;;;;;;;;;6196246;23;20057;-88
2022/03/14 08:01:57;;;;;;;21.65;10.30;;;;;;;;;;6196201;23;20084;-89
2022/03/14 08:04:24;;;;;;;21.70;9.23;;;;;;;;;;6222548;23;20020;-89
2022/03/14 08:06:51;;;;;;;18.67;10.68;;;;;;;;;;6222642;23;20026;-89
2022/03/14 08:09:18;;;;;;;18.30;8.77;;;;;;;;;;6196347;23;20060;-90
2022/03/14 08:11:44;;;;;;;19.98;8.75;;;;;;;;;;6222625;23;19997;-90
2022/03/14 08:14:10;;;;;;;17.23;9.35;;;;;;;;;;6222566;23;20004;-89
2022/03/14 08:16:36;;;;;;;19.45;9.93;;;;;;;;;;6196134;23;20027;-89
2022/03/14 08:19:03;;;;;;;16.58;9.57;;;;;;;;;;6195560;23;20059;-89
2022/03/14 08:21:29;;;;;;;33.83;11.02;;;;;;;;;;6195506;23;20001;-89
2022/03/14 08:23:55;;;;;;;16.88;9.55;;;;;;;;;;6195888;23;20000;-90
2022/03/14 08:26:22;;;;;;;16.65;9.57;;;;;;;;;;6222170;23;20364;-89
2022/03/14 08:28:48;;;;;;;23.55;10.77;;;;;;;;;;6222032;23;20004;-89
2022/03/14 08:31:15;;;;;;;21.20;11.25;;;;;;;;;;6222434;23;20024;-89
2022/03/14 08:33:41;;;;;;;18.58;10.23;;;;;;;;;;6221837;23;20378;-90
2022/03/14 08:36:08;;;;;;;20.02;10.27;;;;;;;;;;6222172;23;20008;-89
2022/03/14 08:38:34;;;;;;;15.63;8.38;;;;;;;;;;6222261;23;20061;-89
2022/03/14 08:41:00;;;;;;;21.13;11.10;;;;;;;;;;6195410;23;20001;-89
2022/03/14 08:43:28;;;;;;;25.02;13.52;;;;;;;;;;6195682;23;20005;-89
2022/03/14 08:45:54;;;;;;;19.85;12.18;;;;;;;;;;6222387;23;19999;-89
2022/03/14 08:48:20;;;;;;;26.33;12.98;;;;;;;;;;6222501;23;20021;-89
2022/03/14 08:50:46;;;;;;;34.80;16.33;;;;;;;;;;6221993;23;20004;-90
2022/03/14 08:53:12;;;;;;;32.45;15.52;;;;;;;;;;6221834;23;20005;-89
2022/03/14 08:55:38;;;;;;;24.95;9.55;;;;;;;;;;6195813;23;20013;-89
2022/03/14 08:58:05;;;;;;;21.10;10.93;;;;;;;;;;6222110;23;20009;-89
2022/03/14 09:00:31;;;;;;;17.50;9.82;;;;;;;;;;6196066;23;20020;-89
2022/03/14 09:02:57;;;;;;;16.23;8.93;;;;;;;;;;6195066;23;20000;-90
2022/03/14 09:05:23;;;;;;;19.10;9.50;;;;;;;;;;6195470;23;20020;-88
2022/03/14 09:07:51;;;;;;;25.90;10.43;;;;;;;;;;6221713;23;20008;-89
2022/03/14 09:10:17;;;;;;;16.65;9.32;;;;;;;;;;6194797;23;20009;-88
2022/03/14 09:12:43;;;;;;;15.77;9.23;;;;;;;;;;6222297;23;20004;-88
2022/03/14 09:15:10;;;;;;;13.25;8.27;;;;;;;;;;6221586;23;20008;-89
2022/03/14 09:17:54;;;;;;;15.32;9.15;;;;;;;;;;6221178;23;20012;-88
2022/03/14 09:20:21;;;;;;;21.77;9.18;;;;;;;;;;6221178;23;20329;-88
2022/03/14 09:22:48;;;;;;;15.07;9.95;;;;;;;;;;6221458;23;20005;-88
2022/03/14 09:25:14;;;;;;;17.05;8.48;;;;;;;;;;6221099;23;19997;-89
2022/03/14 09:27:41;;;;;;;15.45;9.45;;;;;;;;;;6221884;23;20004;-89
2022/03/14 09:30:09;;;;;;;18.00;8.65;;;;;;;;;;6221630;23;20001;-88
2022/03/14 09:32:36;;;;;;;19.20;9.00;;;;;;;;;;6221732;23;20024;-88
2022/03/14 09:35:03;;;;;;;18.08;10.32;;;;;;;;;;6221886;23;20016;-88
2022/03/14 09:37:30;;;;;;;22.60;10.07;;;;;;;;;;6221724;23;20004;-87
2022/03/14 09:39:56;;;;;;;18.30;10.30;;;;;;;;;;6221775;23;20020;-88
2022/03/14 09:42:23;;;;;;;19.92;10.60;;;;;;;;;;6221784;23;20344;-88
2022/03/14 09:44:57;;;;;;;21.17;11.75;;;;;;;;;;6221705;23;20000;-88
2022/03/14 09:47:24;;;;;;;19.75;12.18;;;;;;;;;;6195240;23;20004;-88
2022/03/14 09:49:56;;;;;;;23.17;13.65;;;;;;;;;;6221768;23;20009;-88
2022/03/14 09:52:23;;;;;;;17.13;9.43;;;;;;;;;;6221340;23;20001;-88
2022/03/14 09:54:49;;;;;;;16.88;9.70;;;;;;;;;;6221373;23;20027;-88
2022/03/14 09:57:15;;;;;;;21.98;9.88;;;;;;;;;;6195097;23;20042;-88
2022/03/14 09:59:42;;;;;;;22.73;9.27;;;;;;;;;;6221604;23;20355;-88
2022/03/14 10:02:15;;;;;;;19.10;11.35;;;;;;;;;;6221585;23;20001;-88
2022/03/14 10:04:41;;;;;;;15.82;9.15;;;;;;;;;;6194512;23;20087;-88
2022/03/14 10:07:07;;;;;;;23.90;11.23;;;;;;;;;;6221752;23;20012;-88
2022/03/14 10:09:34;;;;;;;15.70;10.00;;;;;;;;;;6221288;23;20048;-87
2022/03/14 10:12:00;;;;;;;12.98;8.02;;;;;;;;;;6221480;23;20264;-88
2022/03/14 10:14:26;;;;;;;19.52;10.52;;;;;;;;;;6221062;23;20032;-88
2022/03/14 10:16:56;;;;;;;12.43;8.07;;;;;;;;;;6195440;23;20010;-88
2022/03/14 10:19:34;;;;;;;16.30;7.63;;;;;;;;;;6220988;23;20059;-87
2022/03/14 10:22:18;;;;;;;18.02;8.82;;;;;;;;;;6194923;23;20026;-88
2022/03/14 10:24:46;;;;;;;15.48;9.82;;;;;;;;;;6169946;23;20443;-88
2022/03/14 10:27:12;;;;;;;17.38;8.60;;;;;;;;;;6221161;23;20001;-88
2022/03/14 10:29:38;;;;;;;22.15;10.18;;;;;;;;;;6194058;23;20036;-88
2022/03/14 10:32:19;;;;;;;17.75;9.27;;;;;;;;;;6220659;23;19996;-86
2022/03/14 10:34:52;;;;;;;20.77;10.95;;;;;;;;;;6194109;23;20028;-86
2022/03/14 10:37:18;;;;;;;132.23;55.53;;;;;;;;;;6221103;23;20001;-87
2022/03/14 10:39:44;;;;;;;22.02;11.52;;;;;;;;;;6194493;23;20264;-85
2022/03/14 10:42:12;;;;;;;17.52;9.52;;;;;;;;;;6194719;23;20253;-86
2022/03/14 10:44:39;;;;;;;16.33;8.65;;;;;;;;;;6220785;23;20051;-86
2022/03/14 10:47:06;;;;;;;17.92;9.35;;;;;;;;;;6194387;23;20036;-85
2022/03/14 10:49:36;;;;;;;18.02;10.50;;;;;;;;;;6220866;23;20020;-86
2022/03/14 10:52:04;;;;;;;17.63;9.27;;;;;;;;;;6220814;23;20028;-86
2022/03/14 10:54:30;;;;;;;13.93;8.27;;;;;;;;;;6194085;23;20012;-85
2022/03/14 10:57:02;;;;;;;14.18;7.82;;;;;;;;;;6221088;23;20075;-86
2022/03/14 10:59:34;;;;;;;14.27;9.10;;;;;;;;;;6220636;23;20005;-85
2022/03/14 11:02:02;;;;;;;17.63;8.82;;;;;;;;;;6220746;23;20075;-85
2022/03/14 11:04:28;;;;;;;15.98;9.82;;;;;;;;;;6194528;23;20015;-86
2022/03/14 11:07:00;;;;;;;12.82;8.10;;;;;;;;;;6221163;23;20251;-86
2022/03/14 11:09:41;;;;;;;14.85;8.68;;;;;;;;;;6220877;23;19996;-86
2022/03/14 11:12:09;;;;;;;19.73;10.50;;;;;;;;;;6220789;23;20005;-86
2022/03/14 11:14:35;;;;;;;18.75;10.00;;;;;;;;;;6220764;23;20104;-85
2022/03/14 11:17:14;;;;;;;20.80;11.63;;;;;;;;;;6194485;23;20329;-86
2022/03/14 11:19:41;;;;;;;17.83;8.75;;;;;;;;;;6221018;23;20012;-86
2022/03/14 11:22:10;;;;;;;13.48;8.05;;;;;;;;;;6220646;23;20004;-85
2022/03/14 11:24:37;;;;;;;19.63;9.10;;;;;;;;;;6222033;23;20000;-85
2022/03/14 11:27:04;;;;;;;14.32;8.57;;;;;;;;;;6223068;23;20001;-85
2022/03/14 11:29:33;;;;;;;12.00;6.60;;;;;;;;;;6222854;23;20083;-85
2022/03/14 11:31:59;;;;;;;15.35;8.30;;;;;;;;;;6222896;23;20004;-85
2022/03/14 11:34:29;;;;;;;10.43;6.05;;;;;;;;;;6196278;23;20267;-86
2022/03/14 11:36:55;;;;;;;13.18;8.02;;;;;;;;;;6195765;23;20012;-86
2022/03/14 11:39:22;;;;;;;14.00;6.93;;;;;;;;;;6196325;23;20036;-85
2022/03/14 11:41:48;;;;;;;13.23;7.13;;;;;;;;;;6222213;23;20020;-85
2022/03/14 11:44:15;;;;;;;11.90;7.18;;;;;;;;;;6196218;23;20000;-85
2022/03/14 11:46:41;;;;;;;14.60;9.00;;;;;;;;;;6222138;23;20020;-85
2022/03/14 11:49:15;;;;;;;20.40;6.82;;;;;;;;;;6196379;23;20012;-85
2022/03/14 11:51:41;;;;;;;12.48;7.55;;;;;;;;;;6222834;23;20001;-85
2022/03/14 11:54:15;;;;;;;11.07;7.57;;;;;;;;;;6195580;23;20027;-85
2022/03/14 11:56:53;;;;;;;15.32;7.47;;;;;;;;;;6222645;23;20008;-85
2022/03/14 11:59:29;;;;;;;12.57;7.32;;;;;;;;;;6222536;23;20005;-85
2022/03/14 12:01:56;;;;;;;19.52;7.97;;;;;;;;;;6222867;23;20001;-85
2022/03/14 12:04:29;;;;;;;13.27;6.93;;;;;;;;;;6222096;22;20012;-85
2022/03/14 12:06:55;;;;;;;13.85;7.90;;;;;;;;;;6196681;23;20348;-85
2022/03/14 12:09:25;;;;;;;9.70;6.00;;;;;;;;;;6222212;23;20371;-85
2022/03/14 12:11:51;;;;;;;11.77;6.90;;;;;;;;;;6222650;23;20031;-85
2022/03/14 12:14:36;;;;;;;13.27;7.10;;;;;;;;;;6195968;23;20013;-86
2022/03/14 12:17:14;;;;;;;11.23;6.03;;;;;;;;;;6222114;23;20007;-85
2022/03/14 12:19:56;;;;;;;13.10;7.85;;;;;;;;;;6222172;23;20009;-85
2022/03/14 12:22:39;;;;;;;12.27;7.53;;;;;;;;;;6195934;23;20011;-85
2022/03/14 12:25:06;;;;;;;12.05;7.57;;;;;;;;;;6222515;23;20003;-85
2022/03/14 12:27:42;;;;;;;12.27;5.75;;;;;;;;;;6222314;23;20001;-85
2022/03/14 12:30:20;;;;;;;9.18;5.18;;;;;;;;;;6195983;23;20005;-85
2022/03/14 12:32:48;;;;;;;8.93;5.70;;;;;;;;;;6222345;23;20252;-85
2022/03/14 12:35:18;;;;;;;11.38;6.93;;;;;;;;;;6195635;23;20007;-85
2022/03/14 12:37:44;;;;;;;11.13;6.60;;;;;;;;;;6222110;23;20245;-85
2022/03/14 12:40:19;;;;;;;12.07;5.97;;;;;;;;;;6222458;23;19996;-85
2022/03/14 12:42:46;;;;;;;10.45;6.55;;;;;;;;;;6222274;23;20001;-86
2022/03/14 12:45:15;;;;;;;10.25;7.40;;;;;;;;;;6195689;23;20012;-85
2022/03/14 12:47:42;;;;;;;9.95;6.15;;;;;;;;;;6222306;23;20407;-85
2022/03/14 12:50:10;;;;;;;12.98;5.88;;;;;;;;;;6222173;23;19996;-85
2022/03/14 12:52:55;;;;;;;11.43;6.78;;;;;;;;;;6222176;23;20007;-85
2022/03/14 12:55:22;;;;;;;8.85;6.43;;;;;;;;;;6222127;23;20004;-85
2022/03/14 12:57:55;;;;;;;13.40;6.60;;;;;;;;;;6221544;23;19996;-85
2022/03/14 13:00:21;;;;;;;13.70;7.85;;;;;;;;;;6222112;23;20000;-85
2022/03/14 13:02:47;;;;;;;9.07;6.20;;;;;;;;;;6221884;23;19992;-85
2022/03/14 13:05:18;;;;;;;13.25;7.13;;;;;;;;;;6221452;22;20296;-85
2022/03/14 13:07:44;;;;;;;16.58;8.55;;;;;;;;;;6195342;23;20012;-86
2022/03/14 13:10:10;;;;;;;14.77;8.02;;;;;;;;;;6222009;23;20005;-85
2022/03/14 13:12:36;;;;;;;21.23;10.38;;;;;;;;;;6194949;23;20023;-85
2022/03/14 13:15:07;;;;;;;11.95;8.02;;;;;;;;;;6221802;23;19997;-85
2022/03/14 13:17:33;;;;;;;13.32;7.43;;;;;;;;;;6221438;23;19997;-86
2022/03/14 13:19:59;;;;;;;15.15;8.13;;;;;;;;;;6221528;23;20359;-85
2022/03/14 13:22:26;;;;;;;13.43;7.72;;;;;;;;;;6221927;23;20005;-85
2022/03/14 13:24:53;;;;;;;13.77;7.68;;;;;;;;;;6221872;23;20001;-85
2022/03/14 13:27:26;;;;;;;23.13;11.35;;;;;;;;;;6221431;23;20001;-85
2022/03/14 13:29:52;;;;;;;17.45;9.60;;;;;;;;;;6221545;23;20372;-85
2022/03/14 13:32:20;;;;;;;18.13;10.20;;;;;;;;;;6221432;23;20038;-84
2022/03/14 13:35:05;;;;;;;12.82;8.25;;;;;;;;;;6221612;22;20016;-85
2022/03/14 13:37:31;;;;;;;13.25;8.82;;;;;;;;;;6221298;23;20372;-85
2022/03/14 13:39:57;;;;;;;12.10;7.18;;;;;;;;;;6221836;23;20012;-85
2022/03/14 13:42:23;;;;;;;11.75;6.70;;;;;;;;;;6221388;23;20024;-85
2022/03/14 13:44:50;;;;;;;11.23;7.18;;;;;;;;;;6195112;23;20012;-87
2022/03/14 13:47:27;;;;;;;11.77;6.45;;;;;;;;;;6220881;23;20011;-85
2022/03/14 13:50:03;;;;;;;13.68;6.90;;;;;;;;;;6194951;23;19997;-86
2022/03/14 13:52:29;;;;;;;14.90;7.75;;;;;;;;;;6221342;23;20352;-86
2022/03/14 13:54:55;;;;;;;17.35;7.35;;;;;;;;;;6221589;23;20025;-86
2022/03/14 13:57:22;;;;;;;11.93;7.82;;;;;;;;;;6221262;23;20076;-86
2022/03/14 13:59:49;;;;;;;11.07;7.55;;;;;;;;;;6221589;23;19997;-86
2022/03/14 14:02:21;;;;;;;11.68;6.95;;;;;;;;;;6221594;23;19997;-87
2022/03/14 14:04:48;;;;;;;15.65;8.52;;;;;;;;;;6220969;23;20004;-85
2022/03/14 14:07:18;;;;;;;11.23;6.93;;;;;;;;;;6221419;23;20075;-86
2022/03/14 14:09:45;;;;;;;10.85;6.13;;;;;;;;;;6221500;23;20043;-86
2022/03/14 14:12:29;;;;;;;8.25;5.70;;;;;;;;;;6220365;23;20005;-86
2022/03/14 14:14:59;;;;;;;9.40;6.22;;;;;;;;;;6220782;23;20000;-85
2022/03/14 14:17:34;;;;;;;10.88;7.53;;;;;;;;;;6221396;23;20005;-86
2022/03/14 14:20:31;;;;;;;15.88;8.52;;;;;;;;;;6221211;23;20019;-85
2022/03/14 14:22:59;;;;;;;13.93;7.95;;;;;;;;;;6221047;23;20079;-85
2022/03/14 14:25:32;;;;;;;15.60;8.13;;;;;;;;;;6221364;23;20000;-86
2022/03/14 14:28:02;;;;;;;10.40;7.38;;;;;;;;;;6221060;23;19997;-86
2022/03/14 14:30:42;;;;;;;11.63;7.18;;;;;;;;;;6220855;23;20024;-85
2022/03/14 14:33:16;;;;;;;10.30;6.93;;;;;;;;;;6220857;23;20008;-86
2022/03/14 14:35:47;;;;;;;17.48;10.13;;;;;;;;;;6221464;23;20012;-86
2022/03/14 14:38:13;;;;;;;17.80;11.05;;;;;;;;;;6220809;23;20076;-85
2022/03/14 14:40:41;;;;;;;14.95;7.95;;;;;;;;;;6194710;23;20311;-86
2022/03/14 14:43:08;;;;;;;13.77;8.52;;;;;;;;;;6170010;23;20011;-86
2022/03/14 14:45:34;;;;;;;13.93;6.38;;;;;;;;;;6221322;23;20004;-86
2022/03/14 14:48:01;;;;;;;20.60;9.95;;;;;;;;;;6221454;23;20001;-86
2022/03/14 14:50:27;;;;;;;21.83;10.50;;;;;;;;;;6221255;23;20016;-86
2022/03/14 14:52:53;;;;;;;21.38;11.43;;;;;;;;;;6194672;23;20047;-86
2022/03/14 14:55:19;;;;;;;22.90;11.35;;;;;;;;;;6220653;23;20005;-86